Time;durP1;ratioP1;P1;durP2;ratioP2;P2;SDS_P1;SDS_P2;PMS_P1;PMS_P2;Temp;Humidity;BMP_temperature;BMP_pressure;BME280_temperature;BME280_humidity;BME280_pressure;Samples;Min_cycle;Max_cycle;Signal;HPM_P1;HPM_P2
2024/02/20 00:01:23;;;;;;;16.25;3.35;;;;;;;6.09;100.00;101986.78;5038689;28;20028;-74
2024/02/20 00:03:49;;;;;;;10.27;3.05;;;;;;;6.00;100.00;101984.78;5055375;28;20039;-73
2024/02/20 00:06:15;;;;;;;12.25;3.20;;;;;;;5.86;100.00;101987.63;5039195;28;20456;-73
2024/02/20 00:08:41;;;;;;;11.73;4.05;;;;;;;5.69;100.00;101983.56;5055216;28;20029;-75
2024/02/20 00:11:07;;;;;;;18.55;3.92;;;;;;;5.56;100.00;101982.75;5040659;28;20363;-73
2024/02/20 00:13:33;;;;;;;14.35;3.05;;;;;;;5.53;100.00;101978.50;5039612;28;20048;-76
2024/02/20 00:16:00;;;;;;;16.50;4.32;;;;;;;5.45;100.00;101987.06;5039012;28;20036;-72
2024/02/20 00:18:25;;;;;;;18.65;3.60;;;;;;;5.53;100.00;101978.50;5055534;28;20538;-72
2024/02/20 00:20:51;;;;;;;15.32;2.55;;;;;;;5.67;100.00;101981.00;5072099;28;20119;-74
2024/02/20 00:23:17;;;;;;;16.48;2.60;;;;;;;5.71;100.00;101978.94;5038520;28;20089;-72
2024/02/20 00:25:43;;;;;;;14.57;3.05;;;;;;;5.80;100.00;101980.09;5039724;28;20067;-73
2024/02/20 00:28:09;;;;;;;16.50;3.33;;;;;;;5.88;100.00;101973.22;5038809;28;20450;-73
2024/02/20 00:30:35;;;;;;;19.00;3.88;;;;;;;5.96;100.00;101956.66;5054684;28;20036;-73
2024/02/20 00:33:01;;;;;;;16.40;3.78;;;;;;;5.93;100.00;101944.38;5038420;28;20035;-72
2024/02/20 00:35:27;;;;;;;18.23;3.65;;;;;;;5.83;100.00;101927.31;5055090;28;20067;-72
2024/02/20 00:37:52;;;;;;;11.93;3.03;;;;;;;5.68;100.00;101921.31;5054611;28;20064;-75
2024/02/20 00:40:18;;;;;;;24.92;5.78;;;;;;;5.57;100.00;101909.75;5038765;28;20029;-73
2024/02/20 00:42:45;;;;;;;16.73;4.20;;;;;;;5.49;100.00;101913.84;5038339;28;20052;-72
2024/02/20 00:45:11;;;;;;;10.82;2.90;;;;;;;5.54;100.00;101910.00;5039338;28;20043;-72
2024/02/20 00:47:37;;;;;;;11.73;2.65;;;;;;;5.76;100.00;101918.06;5038435;28;20032;-72
2024/02/20 00:50:03;;;;;;;12.50;3.17;;;;;;;5.69;100.00;101917.69;5038200;28;20041;-72
2024/02/20 00:52:29;;;;;;;7.07;1.92;;;;;;;5.71;100.00;101923.75;5055025;28;20033;-72
2024/02/20 00:54:54;;;;;;;12.30;2.40;;;;;;;5.85;100.00;101905.88;5038527;28;20033;-73
2024/02/20 00:57:20;;;;;;;10.15;2.33;;;;;;;5.76;100.00;101909.22;5038393;28;20040;-72
2024/02/20 00:59:46;;;;;;;6.32;2.00;;;;;;;5.67;100.00;101916.97;5040597;28;20074;-73
2024/02/20 01:02:12;;;;;;;12.85;2.75;;;;;;;5.99;100.00;101916.38;5038082;28;20366;-72
2024/02/20 01:04:42;;;;;;;8.32;2.33;;;;;;;6.15;100.00;101902.69;5070594;28;20025;-72
2024/02/20 01:07:07;;;;;;;10.90;2.00;;;;;;;6.29;100.00;101891.75;5037737;28;20101;-72
2024/02/20 01:09:34;;;;;;;8.10;2.22;;;;;;;6.45;100.00;101894.06;5038064;28;20410;-73
2024/02/20 01:12:00;;;;;;;5.70;1.63;;;;;;;6.76;100.00;101899.66;5039500;28;20032;-73
2024/02/20 01:14:25;;;;;;;9.63;1.60;;;;;;;7.00;100.00;101903.03;5038290;28;20035;-73
2024/02/20 01:16:51;;;;;;;8.80;2.25;;;;;;;7.12;100.00;101908.34;5037806;28;20124;-72
2024/02/20 01:19:17;;;;;;;9.80;2.20;;;;;;;7.24;100.00;101889.47;5037762;28;20093;-73
2024/02/20 01:21:42;;;;;;;7.07;1.90;;;;;;;7.58;100.00;101896.53;5037296;28;20308;-73
2024/02/20 01:24:08;;;;;;;8.73;1.60;;;;;;;7.77;100.00;101899.34;5037682;28;20038;-72
2024/02/20 01:26:34;;;;;;;9.18;1.80;;;;;;;7.79;100.00;101899.25;5054981;28;20140;-72
2024/02/20 01:28:59;;;;;;;7.97;1.73;;;;;;;7.74;100.00;101886.22;5021563;28;20043;-72
2024/02/20 01:31:26;;;;;;;5.30;1.75;;;;;;;7.84;100.00;101889.84;5037667;28;20041;-72
2024/02/20 01:33:53;;;;;;;8.02;1.63;;;;;;;7.96;100.00;101882.56;5037390;28;20048;-73
2024/02/20 01:36:19;;;;;;;5.18;1.30;;;;;;;8.07;100.00;101887.00;5054666;28;20036;-72
2024/02/20 01:38:46;;;;;;;7.18;1.58;;;;;;;8.08;100.00;101897.59;5037406;28;20441;-72
2024/02/20 01:41:12;;;;;;;4.55;1.98;;;;;;;8.13;100.00;101894.53;5037190;28;20502;-73
2024/02/20 01:43:37;;;;;;;8.65;1.95;;;;;;;8.08;100.00;101894.06;5037655;28;20123;-73
2024/02/20 01:46:07;;;;;;;12.35;1.92;;;;;;;7.97;100.00;101875.41;5038236;28;20105;-72
2024/02/20 01:48:33;;;;;;;11.10;2.20;;;;;;;7.90;100.00;101881.25;5037534;28;20036;-72
2024/02/20 01:50:58;;;;;;;8.73;1.80;;;;;;;7.88;100.00;101863.63;5037854;28;20433;-73
2024/02/20 01:53:24;;;;;;;8.25;1.65;;;;;;;7.82;100.00;101864.16;5037820;28;20122;-72
2024/02/20 01:55:50;;;;;;;8.82;1.77;;;;;;;7.77;100.00;101850.31;5037818;28;20052;-73
2024/02/20 01:58:15;;;;;;;6.80;1.60;;;;;;;7.79;100.00;101840.34;5037076;28;20492;-74
2024/02/20 02:00:41;;;;;;;9.07;1.55;;;;;;;7.79;100.00;101859.06;5037382;28;20028;-72
2024/02/20 02:03:07;;;;;;;7.15;1.60;;;;;;;7.81;100.00;101855.28;5039515;28;20032;-72
2024/02/20 02:05:32;;;;;;;5.90;1.80;;;;;;;7.82;100.00;101856.97;5053321;28;20028;-76
2024/02/20 02:07:59;;;;;;;10.35;1.98;;;;;;;7.78;100.00;101847.53;5037133;28;20383;-74
2024/02/20 02:10:25;;;;;;;9.32;1.50;;;;;;;7.79;100.00;101854.56;5053331;28;20066;-74
2024/02/20 02:12:51;;;;;;;7.70;1.60;;;;;;;7.80;100.00;101842.88;5071796;28;20064;-74
2024/02/20 02:15:16;;;;;;;11.10;2.20;;;;;;;7.82;100.00;101832.88;5036663;28;20512;-74
2024/02/20 02:17:42;;;;;;;10.27;2.28;;;;;;;7.86;100.00;101818.25;5037022;28;20052;-74
2024/02/20 02:20:08;;;;;;;4.68;1.40;;;;;;;7.92;100.00;101819.56;5037315;28;20100;-74
2024/02/20 02:22:35;;;;;;;7.10;1.83;;;;;;;7.98;100.00;101808.31;5071058;28;20072;-74
2024/02/20 02:25:01;;;;;;;10.05;1.90;;;;;;;8.03;100.00;101815.94;5070688;28;20119;-74
2024/02/20 02:27:27;;;;;;;10.13;1.88;;;;;;;8.09;100.00;101818.06;5037289;28;20109;-74
2024/02/20 02:29:53;;;;;;;10.25;2.28;;;;;;;8.15;100.00;101806.84;5037455;28;20041;-74
2024/02/20 02:32:19;;;;;;;12.80;2.95;;;;;;;8.29;100.00;101794.91;5070521;28;20033;-74
2024/02/20 02:34:44;;;;;;;11.35;1.60;;;;;;;8.37;100.00;101782.53;5053850;28;20467;-76
2024/02/20 02:37:11;;;;;;;7.88;1.60;;;;;;;8.38;100.00;101778.00;5053415;28;20558;-73
2024/02/20 02:39:36;;;;;;;7.53;1.75;;;;;;;8.33;100.00;101764.16;5053748;28;20485;-73
2024/02/20 02:42:02;;;;;;;6.05;1.60;;;;;;;8.32;100.00;101752.59;5037055;28;20111;-73
2024/02/20 02:44:28;;;;;;;4.53;1.58;;;;;;;8.37;100.00;101753.03;5038116;28;20379;-73
2024/02/20 02:46:54;;;;;;;7.15;1.50;;;;;;;8.45;100.00;101770.31;5053164;28;20398;-73
2024/02/20 02:49:20;;;;;;;5.20;1.30;;;;;;;8.51;100.00;101783.16;5037414;28;20171;-74
2024/02/20 02:51:47;;;;;;;10.35;1.50;;;;;;;8.56;100.00;101786.28;5037272;28;20504;-73
2024/02/20 02:54:12;;;;;;;8.50;1.42;;;;;;;8.56;100.00;101770.19;5037854;28;20032;-74
2024/02/20 02:56:38;;;;;;;4.63;1.40;;;;;;;8.56;100.00;101738.03;5037062;28;20044;-74
2024/02/20 02:59:04;;;;;;;2.85;1.20;;;;;;;8.54;100.00;101734.63;5054169;28;20048;-73
2024/02/20 03:01:30;;;;;;;7.07;1.30;;;;;;;8.56;100.00;101735.34;5069902;28;20024;-74
2024/02/20 03:03:57;;;;;;;4.80;1.67;;;;;;;8.57;100.00;101739.69;5056776;28;20173;-73
2024/02/20 03:06:24;;;;;;;8.07;1.40;;;;;;;8.59;100.00;101730.53;5059428;28;20074;-74
2024/02/20 03:08:49;;;;;;;9.55;1.52;;;;;;;8.62;100.00;101739.28;5040732;28;20033;-74
2024/02/20 03:11:16;;;;;;;6.53;1.60;;;;;;;8.63;100.00;101724.94;5040907;28;20020;-73
2024/02/20 03:13:42;;;;;;;6.90;1.58;;;;;;;8.65;100.00;101731.81;5041014;28;20111;-73
2024/02/20 03:16:09;;;;;;;10.77;2.13;;;;;;;8.68;100.00;101726.19;5057892;28;20025;-73
2024/02/20 03:18:38;;;;;;;6.95;1.80;;;;;;;8.70;100.00;101686.66;5057496;28;20462;-74
2024/02/20 03:21:06;;;;;;;6.95;1.40;;;;;;;8.62;100.00;101678.47;5057471;28;20064;-74
2024/02/20 03:23:33;;;;;;;4.97;1.40;;;;;;;8.55;100.00;101677.38;5057229;28;20037;-74
2024/02/20 03:25:58;;;;;;;8.45;1.30;;;;;;;8.54;100.00;101670.28;5041036;28;20041;-73
2024/02/20 03:28:25;;;;;;;7.40;1.48;;;;;;;8.48;100.00;101671.69;5057232;28;20035;-74
2024/02/20 03:30:54;;;;;;;7.28;1.52;;;;;;;8.47;100.00;101690.63;5040100;28;20029;-74
2024/02/20 03:33:21;;;;;;;2.88;1.20;;;;;;;8.55;100.00;101682.72;5057407;28;20047;-74
2024/02/20 03:35:47;;;;;;;5.75;1.42;;;;;;;8.63;100.00;101693.59;5056661;28;20028;-73
2024/02/20 03:38:13;;;;;;;4.43;1.30;;;;;;;8.68;100.00;101688.66;5040374;28;20123;-76
2024/02/20 03:40:39;;;;;;;4.97;1.30;;;;;;;8.71;100.00;101699.09;5056467;28;20036;-73
2024/02/20 03:43:05;;;;;;;7.95;1.50;;;;;;;8.74;100.00;101696.13;5072906;28;20020;-74
2024/02/20 03:45:31;;;;;;;8.73;1.25;;;;;;;8.78;100.00;101676.06;5040722;28;20039;-76
2024/02/20 03:47:57;;;;;;;6.28;1.30;;;;;;;8.77;100.00;101642.22;5039850;28;20032;-74
2024/02/20 03:50:22;;;;;;;5.80;1.25;;;;;;;8.73;100.00;101640.81;5040059;28;20205;-73
2024/02/20 03:52:49;;;;;;;8.20;1.67;;;;;;;8.71;100.00;101661.56;5073129;28;20059;-73
2024/02/20 03:55:15;;;;;;;7.47;1.40;;;;;;;8.75;100.00;101673.69;5039823;28;20109;-74
2024/02/20 03:57:41;;;;;;;5.90;1.40;;;;;;;8.78;100.00;101669.88;5039549;28;20406;-73
2024/02/20 04:00:11;;;;;;;7.57;1.50;;;;;;;8.78;100.00;101646.56;5039315;28;20035;-74
2024/02/20 04:02:43;;;;;;;5.03;1.58;;;;;;;8.76;100.00;101627.13;5039744;28;20056;-75
2024/02/20 04:05:18;;;;;;;7.68;2.47;;;;;;;8.73;100.00;101611.31;5039499;28;20043;-74
2024/02/20 04:07:45;;;;;;;3.08;1.13;;;;;;;8.70;100.00;101586.63;5041617;28;20032;-73
2024/02/20 04:10:12;;;;;;;5.13;1.45;;;;;;;8.67;100.00;101586.91;5057359;28;20486;-74
2024/02/20 04:12:38;;;;;;;7.72;1.60;;;;;;;8.70;100.00;101587.44;5023400;28;20033;-73
2024/02/20 04:15:09;;;;;;;5.07;1.25;;;;;;;8.74;100.00;101583.50;5072093;28;20117;-74
2024/02/20 04:17:35;;;;;;;12.82;1.85;;;;;;;8.78;100.00;101606.34;5038982;28;20463;-75
2024/02/20 04:20:03;;;;;;;7.40;1.90;;;;;;;8.85;100.00;101603.94;5039308;28;20054;-74
2024/02/20 04:22:32;;;;;;;5.65;1.88;;;;;;;8.88;100.00;101592.94;5071952;28;20037;-73
2024/02/20 04:24:59;;;;;;;8.75;1.60;;;;;;;8.89;100.00;101559.78;5023701;28;20041;-73
2024/02/20 04:27:25;;;;;;;10.93;1.90;;;;;;;8.90;100.00;101557.94;5022551;28;20036;-73
2024/02/20 04:29:51;;;;;;;12.00;1.80;;;;;;;8.90;100.00;101566.81;5039592;28;20036;-74
2024/02/20 04:32:17;;;;;;;9.98;2.65;;;;;;;8.95;100.00;101577.13;5023090;28;20628;-74
2024/02/20 04:34:43;;;;;;;6.57;1.60;;;;;;;8.96;100.00;101562.72;5056151;28;20111;-73
2024/02/20 04:37:09;;;;;;;8.32;1.85;;;;;;;9.00;100.00;101561.44;5039839;28;20119;-73
2024/02/20 04:39:34;;;;;;;7.10;2.03;;;;;;;9.07;100.00;101559.00;5039853;28;20033;-73
2024/02/20 04:42:00;;;;;;;13.50;2.15;;;;;;;9.16;100.00;101568.88;5039588;28;20036;-73
2024/02/20 04:44:26;;;;;;;9.93;1.88;;;;;;;9.24;100.00;101563.63;5072589;28;20044;-74
2024/02/20 04:46:51;;;;;;;13.45;2.47;;;;;;;9.28;100.00;101551.56;5040004;28;20497;-73
2024/02/20 04:49:17;;;;;;;14.13;3.17;;;;;;;9.33;100.00;101543.94;5039428;28;20062;-76
2024/02/20 04:51:43;;;;;;;10.35;1.85;;;;;;;9.34;100.00;101540.28;5039652;28;20033;-75
2024/02/20 04:54:09;;;;;;;11.07;2.05;;;;;;;9.36;100.00;101535.56;5039862;28;20170;-74
2024/02/20 04:56:34;;;;;;;11.70;1.92;;;;;;;9.37;100.00;101525.72;5024207;28;20090;-74
2024/02/20 04:59:00;;;;;;;11.68;2.25;;;;;;;9.36;100.00;101532.06;5056548;28;20368;-73
2024/02/20 05:01:26;;;;;;;12.57;2.25;;;;;;;9.36;100.00;101499.84;5040274;28;20028;-73
2024/02/20 05:03:51;;;;;;;12.43;1.95;;;;;;;9.31;100.00;101467.25;5040392;28;20032;-73
2024/02/20 05:06:17;;;;;;;9.77;1.98;;;;;;;9.27;100.00;101498.91;5039850;28;20166;-74
2024/02/20 05:08:43;;;;;;;7.28;1.85;;;;;;;9.29;100.00;101498.75;5040215;28;20059;-74
2024/02/20 05:11:08;;;;;;;11.75;2.53;;;;;;;9.27;100.00;101496.22;5040294;28;20032;-75
2024/02/20 05:13:34;;;;;;;10.70;2.08;;;;;;;9.29;100.00;101525.56;5040168;28;20047;-73
2024/02/20 05:16:01;;;;;;;12.55;2.13;;;;;;;9.27;100.00;101530.28;5040279;28;20032;-73
2024/02/20 05:18:27;;;;;;;10.35;1.85;;;;;;;9.22;100.00;101531.56;5056256;28;20035;-73
2024/02/20 05:20:53;;;;;;;14.10;2.05;;;;;;;9.21;100.00;101510.25;5039822;28;20032;-73
2024/02/20 05:23:18;;;;;;;15.95;3.10;;;;;;;9.18;100.00;101497.97;5040206;28;20028;-74
2024/02/20 05:25:44;;;;;;;10.25;2.70;;;;;;;9.14;100.00;101487.69;5039313;28;20394;-73
2024/02/20 05:28:10;;;;;;;7.97;2.10;;;;;;;9.05;100.00;101489.41;5073210;28;20047;-73
2024/02/20 05:30:36;;;;;;;9.18;2.00;;;;;;;8.97;100.00;101490.16;5056411;28;20058;-73
2024/02/20 05:33:02;;;;;;;9.15;1.95;;;;;;;8.96;100.00;101480.41;5040292;28;20082;-73
2024/02/20 05:35:28;;;;;;;12.88;2.22;;;;;;;8.93;100.00;101483.38;5056025;28;20036;-73
2024/02/20 05:37:54;;;;;;;10.65;2.20;;;;;;;8.87;100.00;101465.22;5039572;28;20055;-74
2024/02/20 05:40:19;;;;;;;10.45;3.67;;;;;;;8.79;100.00;101470.47;5039769;28;20035;-73
2024/02/20 05:42:45;;;;;;;11.07;2.22;;;;;;;8.78;100.00;101472.28;5039775;28;20047;-73
2024/02/20 05:45:11;;;;;;;9.00;2.45;;;;;;;8.75;100.00;101463.69;5039628;28;20075;-73
2024/02/20 05:47:37;;;;;;;13.90;2.53;;;;;;;8.74;100.00;101468.22;5056273;28;20036;-73
2024/02/20 05:50:03;;;;;;;9.18;2.05;;;;;;;8.79;100.00;101473.97;5055800;28;20028;-73
2024/02/20 05:52:30;;;;;;;15.27;2.40;;;;;;;8.88;100.00;101472.25;5039523;28;20028;-74
2024/02/20 05:54:56;;;;;;;15.73;2.65;;;;;;;9.01;100.00;101461.19;5056275;28;20067;-73
2024/02/20 05:57:22;;;;;;;13.50;2.65;;;;;;;9.15;100.00;101460.69;5039462;28;20051;-73
2024/02/20 05:59:47;;;;;;;11.60;1.58;;;;;;;9.25;100.00;101469.53;5039406;28;20036;-74
2024/02/20 06:02:13;;;;;;;16.42;2.58;;;;;;;9.33;100.00;101468.78;5038776;28;20025;-73
2024/02/20 06:04:39;;;;;;;9.27;2.38;;;;;;;9.39;100.00;101459.28;5039536;28;20047;-74
2024/02/20 06:07:05;;;;;;;11.10;2.40;;;;;;;9.51;100.00;101462.59;5039478;28;20378;-74
2024/02/20 06:09:31;;;;;;;9.65;2.58;;;;;;;9.57;100.00;101460.16;5055914;28;20039;-73
2024/02/20 06:11:59;;;;;;;15.90;2.30;;;;;;;9.65;100.00;101459.38;5039061;28;20029;-74
2024/02/20 06:14:27;;;;;;;14.02;2.60;;;;;;;9.72;100.00;101462.31;5056075;28;20040;-73
2024/02/20 06:16:53;;;;;;;13.73;2.22;;;;;;;9.70;100.00;101443.66;5039380;28;20032;-74
2024/02/20 06:19:19;;;;;;;11.82;2.53;;;;;;;9.71;100.00;101456.06;5039265;28;20356;-74
2024/02/20 06:21:45;;;;;;;12.25;2.83;;;;;;;9.72;100.00;101449.72;5038919;28;20395;-74
2024/02/20 06:24:10;;;;;;;10.43;2.75;;;;;;;9.70;100.00;101449.03;5055920;28;20056;-73
2024/02/20 06:26:36;;;;;;;13.80;2.60;;;;;;;9.69;100.00;101452.72;5055585;28;20081;-73
2024/02/20 06:29:02;;;;;;;9.52;2.30;;;;;;;9.68;100.00;101453.69;5039027;28;20154;-73
2024/02/20 06:31:27;;;;;;;12.95;2.30;;;;;;;9.67;100.00;101450.19;5039135;28;20127;-73
2024/02/20 06:33:53;;;;;;;10.68;2.53;;;;;;;9.69;100.00;101450.03;5039218;28;20039;-74
2024/02/20 06:36:19;;;;;;;13.38;2.85;;;;;;;9.72;100.00;101439.00;5038694;28;20136;-74
2024/02/20 06:38:45;;;;;;;14.45;4.53;;;;;;;9.74;100.00;101433.44;5043082;28;20407;-73
2024/02/20 06:41:11;;;;;;;14.70;2.33;;;;;;;9.75;100.00;101427.94;5060003;28;20483;-74
2024/02/20 06:43:37;;;;;;;13.20;2.50;;;;;;;9.75;100.00;101419.03;5043006;28;20032;-74
2024/02/20 06:46:03;;;;;;;15.07;2.88;;;;;;;9.74;100.00;101418.19;5043060;28;20036;-74
2024/02/20 06:48:28;;;;;;;13.40;2.55;;;;;;;9.75;100.00;101411.81;5042890;28;20538;-74
2024/02/20 06:50:54;;;;;;;13.82;2.83;;;;;;;9.76;100.00;101405.44;5059587;28;20071;-73
2024/02/20 06:53:20;;;;;;;15.65;3.42;;;;;;;9.78;100.00;101403.44;5043070;28;20071;-73
2024/02/20 06:55:45;;;;;;;16.00;3.33;;;;;;;9.81;100.00;101402.31;5042902;28;20035;-74
2024/02/20 06:58:11;;;;;;;13.02;2.58;;;;;;;9.84;100.00;101405.53;5042795;28;20475;-73
2024/02/20 07:00:40;;;;;;;12.07;2.40;;;;;;;9.89;100.00;101413.09;5042818;28;20082;-73
2024/02/20 07:03:07;;;;;;;15.82;2.78;;;;;;;9.93;100.00;101402.91;5059729;28;20028;-74
2024/02/20 07:05:32;;;;;;;18.35;2.65;;;;;;;9.93;100.00;101403.75;5042718;28;20036;-73
2024/02/20 07:07:59;;;;;;;13.20;3.67;;;;;;;9.91;100.00;101409.25;5042604;28;20040;-73
2024/02/20 07:10:25;;;;;;;13.63;2.60;;;;;;;9.97;100.00;101406.97;5042689;28;20028;-74
2024/02/20 07:12:51;;;;;;;17.00;2.70;;;;;;;9.97;100.00;101402.44;5042994;28;20368;-74
2024/02/20 07:15:16;;;;;;;16.60;3.38;;;;;;;9.94;100.00;101399.22;5058641;28;20032;-73
2024/02/20 07:17:42;;;;;;;12.57;2.50;;;;;;;9.93;100.00;101394.84;5042660;28;20029;-74
2024/02/20 07:20:08;;;;;;;13.10;2.15;;;;;;;9.90;100.00;101394.16;5058369;28;20047;-73
2024/02/20 07:22:34;;;;;;;11.48;2.45;;;;;;;9.89;100.00;101402.38;5041659;28;20029;-73
2024/02/20 07:25:00;;;;;;;14.93;2.25;;;;;;;9.88;100.00;101411.44;5042164;28;20031;-74
2024/02/20 07:27:26;;;;;;;13.82;2.70;;;;;;;9.86;100.00;101400.00;5058328;28;20382;-74
2024/02/20 07:29:51;;;;;;;16.95;2.88;;;;;;;9.86;100.00;101394.63;5041948;28;20036;-73
2024/02/20 07:32:17;;;;;;;20.88;2.90;;;;;;;9.85;100.00;101388.41;5042259;28;20039;-73
2024/02/20 07:34:45;;;;;;;13.85;2.55;;;;;;;9.76;100.00;101383.97;5042213;28;20028;-74
2024/02/20 07:37:12;;;;;;;14.27;2.50;;;;;;;9.66;100.00;101386.75;5058672;28;20093;-73
2024/02/20 07:39:39;;;;;;;18.08;3.70;;;;;;;9.65;100.00;101379.66;5074915;28;20189;-75
2024/02/20 07:42:07;;;;;;;16.75;2.40;;;;;;;9.74;100.00;101380.59;5057961;28;20025;-74
2024/02/20 07:44:33;;;;;;;3.72;1.88;;;;;;;9.80;100.00;101381.81;5058780;28;20064;-74
2024/02/20 07:46:59;;;;;;;10.63;2.60;;;;;;;9.85;100.00;101369.59;5041910;28;20029;-74
2024/02/20 07:49:24;;;;;;;14.75;3.47;;;;;;;9.88;100.00;101379.19;5040810;28;20135;-74
2024/02/20 07:51:50;;;;;;;15.55;2.80;;;;;;;9.89;100.00;101370.13;5041460;28;20036;-74
2024/02/20 07:54:16;;;;;;;11.95;3.55;;;;;;;9.91;100.00;101366.28;5041332;28;20037;-74
2024/02/20 07:56:42;;;;;;;11.05;2.25;;;;;;;9.96;100.00;101363.13;5074142;28;20025;-74
2024/02/20 07:59:10;;;;;;;13.63;2.25;;;;;;;9.96;100.00;101347.03;5041042;28;20456;-75
2024/02/20 08:01:36;;;;;;;15.95;2.97;;;;;;;9.96;100.00;101349.72;5074723;28;20475;-74
2024/02/20 08:04:02;;;;;;;11.68;2.88;;;;;;;9.97;100.00;101343.31;5025001;28;20036;-73
2024/02/20 08:06:28;;;;;;;19.75;2.58;;;;;;;10.01;100.00;101355.44;5058088;28;20085;-74
2024/02/20 08:08:53;;;;;;;13.63;3.10;;;;;;;10.12;100.00;101338.22;5041440;28;20127;-74
2024/02/20 08:11:19;;;;;;;12.85;1.95;;;;;;;10.22;100.00;101332.75;5058052;28;20063;-74
2024/02/20 08:13:49;;;;;;;20.02;2.63;;;;;;;10.26;100.00;101343.00;5058135;28;20075;-74
2024/02/20 08:16:15;;;;;;;2.75;1.40;;;;;;;10.31;100.00;101347.94;5074424;28;20146;-74
2024/02/20 08:18:41;;;;;;;13.23;1.95;;;;;;;10.33;100.00;101337.88;5056841;28;20032;-74
2024/02/20 08:21:10;;;;;;;13.38;2.00;;;;;;;10.37;100.00;101341.91;5040435;28;20032;-74
2024/02/20 08:23:37;;;;;;;10.63;2.40;;;;;;;10.37;100.00;101341.06;5057949;28;20106;-73
2024/02/20 08:26:03;;;;;;;9.50;2.08;;;;;;;10.38;100.00;101337.41;5040956;28;20029;-74
2024/02/20 08:28:29;;;;;;;11.13;2.45;;;;;;;10.39;100.00;101326.47;5040796;28;20119;-73
2024/02/20 08:31:01;;;;;;;6.78;1.85;;;;;;;10.38;100.00;101324.78;5040903;28;20127;-75
2024/02/20 08:33:27;;;;;;;11.98;2.58;;;;;;;10.42;100.00;101314.56;5073871;28;20028;-74
2024/02/20 08:35:53;;;;;;;12.57;3.35;;;;;;;10.44;100.00;101328.69;5057038;28;20115;-74
2024/02/20 08:38:19;;;;;;;10.23;2.28;;;;;;;10.47;100.00;101307.69;5040946;28;20056;-73
2024/02/20 08:40:45;;;;;;;10.77;2.72;;;;;;;10.45;100.00;101309.72;5040886;28;20032;-74
2024/02/20 08:43:12;;;;;;;8.00;1.70;;;;;;;10.49;100.00;101310.22;5057084;28;20035;-74
2024/02/20 08:45:38;;;;;;;9.57;2.00;;;;;;;10.52;100.00;101318.78;5056816;28;20025;-75
2024/02/20 08:48:04;;;;;;;14.30;2.28;;;;;;;10.65;100.00;101301.38;5073667;28;20495;-74
2024/02/20 08:50:30;;;;;;;10.18;1.30;;;;;;;10.72;100.00;101302.41;5073903;28;20032;-73
2024/02/20 08:52:56;;;;;;;5.93;1.17;;;;;;;10.71;100.00;101265.75;5040362;28;20490;-73
2024/02/20 08:55:21;;;;;;;3.15;1.38;;;;;;;10.64;100.00;101307.75;5040426;28;20094;-74
2024/02/20 08:57:47;;;;;;;5.90;1.73;;;;;;;10.53;100.00;101306.19;5039673;28;20470;-75
2024/02/20 09:00:14;;;;;;;9.98;1.80;;;;;;;10.45;100.00;101298.09;5037617;28;20068;-75
2024/02/20 09:02:40;;;;;;;7.95;1.63;;;;;;;10.35;100.00;101303.63;5037996;28;20029;-75
2024/02/20 09:05:06;;;;;;;4.28;1.40;;;;;;;10.33;100.00;101293.00;5038724;28;20032;-75
2024/02/20 09:07:32;;;;;;;0.88;0.57;;;;;;;10.49;100.00;101278.78;5054924;28;20048;-75
2024/02/20 09:09:58;;;;;;;2.72;1.13;;;;;;;10.57;100.00;101294.13;5038382;28;20475;-75
2024/02/20 09:12:23;;;;;;;0.82;0.80;;;;;;;10.52;100.00;101293.75;5038863;28;20351;-75
2024/02/20 09:14:49;;;;;;;0.50;0.50;;;;;;;10.43;100.00;101295.59;5040354;28;20067;-75
2024/02/20 09:17:15;;;;;;;8.30;1.20;;;;;;;10.44;100.00;101293.72;5040338;28;20050;-74
2024/02/20 09:19:41;;;;;;;2.38;1.00;;;;;;;10.43;100.00;101295.59;5073215;28;20032;-75
2024/02/20 09:22:10;;;;;;;2.22;0.73;;;;;;;10.45;100.00;101288.22;5039986;28;20071;-75
2024/02/20 09:24:36;;;;;;;2.17;0.77;;;;;;;10.52;100.00;101289.22;5056985;28;20043;-75
2024/02/20 09:27:03;;;;;;;4.90;1.17;;;;;;;10.51;100.00;101298.31;5056429;28;20047;-74
2024/02/20 09:29:31;;;;;;;4.25;1.20;;;;;;;10.50;100.00;101293.91;5056666;28;20032;-75
2024/02/20 09:32:00;;;;;;;0.90;0.73;;;;;;;10.47;100.00;101294.25;5056841;28;20032;-75
2024/02/20 09:34:26;;;;;;;6.05;1.13;;;;;;;10.53;100.00;101306.19;5039701;28;20390;-75
2024/02/20 09:36:52;;;;;;;5.15;1.17;;;;;;;10.52;100.00;101297.28;5056028;28;20041;-75
2024/02/20 09:39:21;;;;;;;1.67;1.08;;;;;;;10.51;100.00;101298.31;5039768;28;20048;-75
2024/02/20 09:41:53;;;;;;;0.95;0.70;;;;;;;10.47;100.00;101290.72;5039893;28;20483;-76
2024/02/20 09:44:19;;;;;;;2.35;1.00;;;;;;;10.44;100.00;101291.03;5056435;28;20391;-75
2024/02/20 09:46:54;;;;;;;3.58;1.00;;;;;;;10.44;100.00;101278.44;5055895;28;20033;-75
2024/02/20 09:49:20;;;;;;;4.88;1.13;;;;;;;10.49;100.00;101281.47;5039830;28;20032;-75
2024/02/20 09:51:49;;;;;;;7.07;1.17;;;;;;;10.49;100.00;101272.59;5039593;28;20047;-75
2024/02/20 09:54:17;;;;;;;5.45;1.33;;;;;;;10.50;100.00;101264.34;5056984;28;20127;-75
2024/02/20 09:56:44;;;;;;;5.80;1.88;;;;;;;10.49;100.00;101262.66;5039621;28;20139;-75
2024/02/20 09:59:10;;;;;;;2.17;1.20;;;;;;;10.55;100.00;101242.34;5072705;28;20044;-75
2024/02/20 10:01:37;;;;;;;2.38;0.95;;;;;;;10.54;100.00;101248.75;5055971;28;20495;-75
2024/02/20 10:04:04;;;;;;;8.35;1.65;;;;;;;10.51;100.00;101257.13;5055763;28;20025;-75
2024/02/20 10:06:30;;;;;;;0.50;0.50;;;;;;;10.50;100.00;101250.06;5055851;28;20055;-75
2024/02/20 10:08:57;;;;;;;3.17;1.52;;;;;;;10.55;100.00;101235.13;5039468;28;20471;-76
2024/02/20 10:11:23;;;;;;;1.70;0.90;;;;;;;10.61;100.00;101232.78;5039201;28;20033;-75
2024/02/20 10:13:51;;;;;;;2.58;1.00;;;;;;;10.62;100.00;101239.84;5023044;28;20139;-76
2024/02/20 10:16:17;;;;;;;3.03;0.88;;;;;;;10.61;100.00;101238.16;5056186;28;20036;-75
2024/02/20 10:18:44;;;;;;;3.47;1.45;;;;;;;10.65;100.00;101220.69;5039268;28;20467;-75
2024/02/20 10:21:13;;;;;;;4.75;1.80;;;;;;;10.68;100.00;101231.13;5055985;28;20037;-75
2024/02/20 10:23:41;;;;;;;4.35;1.30;;;;;;;10.66;100.00;101219.69;5039214;28;20413;-75
2024/02/20 10:26:07;;;;;;;3.17;1.30;;;;;;;10.68;100.00;101214.97;5039326;28;20041;-75
2024/02/20 10:28:34;;;;;;;1.13;0.82;;;;;;;10.70;100.00;101211.13;5055991;28;20060;-75
2024/02/20 10:31:00;;;;;;;3.97;1.13;;;;;;;10.71;100.00;101215.47;5039024;28;20086;-76
2024/02/20 10:33:26;;;;;;;2.85;1.10;;;;;;;10.74;100.00;101217.00;5055895;28;20459;-76
2024/02/20 10:36:03;;;;;;;2.10;1.00;;;;;;;10.77;100.00;101214.00;5038869;28;20056;-76
2024/02/20 10:38:28;;;;;;;2.03;1.00;;;;;;;10.75;100.00;101211.47;5039279;28;20071;-76
2024/02/20 10:40:54;;;;;;;0.80;0.77;;;;;;;10.74;100.00;101206.25;5039051;28;20044;-76
2024/02/20 10:43:20;;;;;;;0.95;0.85;;;;;;;10.66;100.00;101206.22;5055255;28;20024;-76
2024/02/20 10:45:51;;;;;;;3.78;0.95;;;;;;;10.65;100.00;101207.25;5022495;28;20036;-76
2024/02/20 10:48:17;;;;;;;2.97;1.15;;;;;;;10.62;100.00;101205.72;5056052;28;20028;-76
2024/02/20 10:50:44;;;;;;;5.40;1.27;;;;;;;10.61;100.00;101208.56;5072053;28;20033;-77
2024/02/20 10:53:10;;;;;;;2.70;1.10;;;;;;;10.59;100.00;101213.28;5038962;28;20035;-76
2024/02/20 10:55:36;;;;;;;2.55;0.57;;;;;;;10.60;100.00;101209.59;5038833;28;20040;-76
2024/02/20 10:58:03;;;;;;;6.45;0.82;;;;;;;10.62;100.00;101207.59;5071757;28;20074;-76
2024/02/20 11:00:29;;;;;;;0.75;0.75;;;;;;;10.65;100.00;101207.25;5071859;28;20464;-76
2024/02/20 11:02:56;;;;;;;1.13;0.80;;;;;;;10.71;100.00;101212.78;5038910;28;20079;-76
2024/02/20 11:05:23;;;;;;;0.70;0.70;;;;;;;10.76;100.00;101215.00;5038848;28;20044;-76
2024/02/20 11:07:49;;;;;;;1.10;0.50;;;;;;;10.79;100.00;101214.66;5040062;28;20040;-76
2024/02/20 11:10:17;;;;;;;0.60;0.60;;;;;;;10.81;100.00;101231.47;5038750;28;20032;-76
2024/02/20 11:12:44;;;;;;;2.58;0.77;;;;;;;10.76;100.00;101221.22;5055573;28;20025;-75
2024/02/20 11:15:20;;;;;;;0.95;0.85;;;;;;;10.75;100.00;101237.53;5054857;28;20437;-76